This is the latest recevied weather packets stored in our database for station/object Huerbel. If no packets are shown the sender has not sent any weather packets the latest 10 day(s).
| Time | Temp. | Humidity | Pressure | Rain* | Wind** | Luminosity | Snow |
|---|---|---|---|---|---|---|---|
| 1777797132 | 19.44° C | 48% | 1015.9 hPa | 0 mm | - | - | - |
| 1777795332 | 17.22° C | 59% | 1015.8 hPa | 0 mm | - | - | - |
| 1777793531 | 16.67° C | 63% | 1015.8 hPa | 0 mm | - | - | - |
| 1777791731 | 14.44° C | 67% | 1016 hPa | 0 mm | - | - | - |
| 1777789931 | 10° C | 86% | 1016.1 hPa | 0 mm | - | - | - |
| 1777788131 | 8.33° C | 77% | 1016.1 hPa | 0 mm | - | - | - |
| 1777786331 | 8.33° C | 77% | 1016.1 hPa | 0 mm | - | - | - |
| 1777784532 | 8.33° C | 77% | 1016.2 hPa | 0 mm | - | - | - |
| 1777782731 | 8.33° C | 77% | 1016.2 hPa | 0 mm | - | - | - |
| 1777780930 | 8.33° C | 77% | 1016.5 hPa | 0 mm | - | - | - |
| 1777779131 | 8.33° C | 77% | 1016.5 hPa | 0 mm | - | - | - |
| 1777777331 | 8.33° C | 77% | 1016.5 hPa | 0 mm | - | - | - |
| 1777775531 | 8.33° C | 77% | 1016.9 hPa | 0 mm | - | - | - |
| 1777773731 | 8.33° C | 77% | 1017 hPa | 0 mm | - | - | - |
| 1777771931 | 8.33° C | 77% | 1017.2 hPa | 0 mm | - | - | - |
| 1777770132 | 8.33° C | 77% | 1017.4 hPa | 0 mm | - | - | - |
| 1777768329 | 8.33° C | 77% | 1017.5 hPa | 0 mm | - | - | - |
| 1777766530 | 8.33° C | 77% | 1017.7 hPa | 0 mm | - | - | - |
| 1777764730 | 8.33° C | 77% | 1017.9 hPa | 0 mm | - | - | - |
| 1777762930 | 8.33° C | 77% | 1017.8 hPa | 0 mm | - | - | - |
| 1777761131 | 0° C | 100% | 1017.9 hPa | 0 mm | - | - | - |
| 1777759330 | 0° C | 100% | 1018 hPa | 0 mm | - | - | - |
| 1777757530 | 11.11° C | 67% | 1018.2 hPa | 0 mm | - | - | - |
| 1777755729 | 11.67° C | 66% | 1018.3 hPa | 0 mm | - | - | - |
| 1777753930 | 12.78° C | 62% | 1018.4 hPa | 0 mm | - | - | - |
* Rain since midnight (hover to see other rain measurements)
** Current wind speed in m/s (hover to see current wind gust speed)